Time;durP1;ratioP1;P1;durP2;ratioP2;P2;SDS_P1;SDS_P2;PMS_P1;PMS_P2;Temp;Humidity;BMP_temperature;BMP_pressure;BME280_temperature;BME280_humidity;BME280_pressure;Samples;Min_cycle;Max_cycle;Signal;HPM_P1;HPM_P2
2021/07/16 00:00:51;;;;;;;13.13;9.77;;;;;;;;;;4935411;29;20291;-68
2021/07/16 00:03:36;;;;;;;13.10;9.57;;;;;;;;;;4935038;29;20300;-67
2021/07/16 00:06:21;;;;;;;13.60;9.37;;;;;;;;;;4937503;28;20228;-67
2021/07/16 00:09:06;;;;;;;14.47;9.77;;;;;;;;;;4934824;29;20571;-67
2021/07/16 00:11:51;;;;;;;15.40;9.90;;;;;;;;;;4937073;29;20300;-67
2021/07/16 00:14:38;;;;;;;14.80;9.73;;;;;;;;;;4953834;29;20605;-67
2021/07/16 00:17:25;;;;;;;16.63;10.43;;;;;;;;;;4951295;29;20214;-67
2021/07/16 00:20:11;;;;;;;15.37;10.17;;;;;;;;;;4949011;28;20470;-67
2021/07/16 00:22:56;;;;;;;13.77;9.67;;;;;;;;;;4934307;29;20728;-67
2021/07/16 00:25:41;;;;;;;15.20;9.40;;;;;;;;;;4934019;29;20693;-65
2021/07/16 00:28:26;;;;;;;15.17;10.47;;;;;;;;;;4934849;29;20212;-67
2021/07/16 00:31:10;;;;;;;14.60;11.27;;;;;;;;;;4945483;29;20468;-67
2021/07/16 00:33:57;;;;;;;13.23;10.00;;;;;;;;;;4953325;29;20276;-67
2021/07/16 00:36:43;;;;;;;15.10;10.20;;;;;;;;;;4934794;29;20635;-67
2021/07/16 00:39:28;;;;;;;13.80;10.43;;;;;;;;;;4934416;29;20252;-68
2021/07/16 00:42:13;;;;;;;16.07;10.50;;;;;;;;;;4934134;29;20308;-67
2021/07/16 00:44:58;;;;;;;15.73;10.70;;;;;;;;;;4934404;29;20579;-67
2021/07/16 00:47:45;;;;;;;15.37;10.83;;;;;;;;;;4950333;29;20303;-66
2021/07/16 00:50:33;;;;;;;18.47;10.90;;;;;;;;;;4942371;29;20717;-67
2021/07/16 00:53:19;;;;;;;16.53;11.40;;;;;;;;;;4934037;29;20232;-67
2021/07/16 00:56:04;;;;;;;15.60;10.50;;;;;;;;;;4933758;29;20228;-67
2021/07/16 00:58:49;;;;;;;15.93;10.63;;;;;;;;;;4933763;29;20208;-67
2021/07/16 01:01:34;;;;;;;16.80;10.83;;;;;;;;;;4933998;29;20701;-67
2021/07/16 01:04:19;;;;;;;16.20;11.53;;;;;;;;;;4939003;29;20225;-66
2021/07/16 01:07:05;;;;;;;18.77;11.57;;;;;;;;;;4949908;29;20219;-67
2021/07/16 01:09:51;;;;;;;14.57;11.30;;;;;;;;;;4943831;29;20217;-68
2021/07/16 01:12:37;;;;;;;15.57;11.07;;;;;;;;;;4933528;29;20312;-67
2021/07/16 01:15:22;;;;;;;14.37;10.50;;;;;;;;;;4947099;29;20691;-67
2021/07/16 01:18:07;;;;;;;18.03;11.93;;;;;;;;;;4952296;29;20215;-67
2021/07/16 01:20:52;;;;;;;15.67;11.40;;;;;;;;;;4934033;29;20220;-68
2021/07/16 01:23:39;;;;;;;14.83;11.00;;;;;;;;;;4933496;29;20304;-67
2021/07/16 01:26:24;;;;;;;14.43;10.87;;;;;;;;;;4932893;29;20215;-67
2021/07/16 01:29:09;;;;;;;13.68;11.05;;;;;;;;;;4939309;28;20438;-67
2021/07/16 01:31:54;;;;;;;17.50;12.13;;;;;;;;;;4947940;29;20284;-67
2021/07/16 01:34:39;;;;;;;16.77;11.57;;;;;;;;;;4934636;29;20340;-67
2021/07/16 01:37:24;;;;;;;15.60;11.80;;;;;;;;;;4949935;29;20260;-67
2021/07/16 01:40:12;;;;;;;15.73;11.43;;;;;;;;;;4951378;29;20341;-67
2021/07/16 01:42:58;;;;;;;20.70;12.23;;;;;;;;;;4951424;29;20230;-67
2021/07/16 01:45:43;;;;;;;17.20;11.47;;;;;;;;;;4951638;29;20212;-66
2021/07/16 01:48:30;;;;;;;20.10;12.20;;;;;;;;;;4950942;29;20264;-67
2021/07/16 01:51:14;;;;;;;22.70;12.13;;;;;;;;;;4951344;29;20714;-67
2021/07/16 01:53:59;;;;;;;16.47;11.27;;;;;;;;;;4945222;28;20301;-67
2021/07/16 01:56:46;;;;;;;16.83;11.73;;;;;;;;;;4950519;29;20209;-67
2021/07/16 01:59:31;;;;;;;17.23;11.40;;;;;;;;;;4948381;29;20215;-67
2021/07/16 02:02:16;;;;;;;17.23;11.40;;;;;;;;;;4935510;29;20200;-67
2021/07/16 02:05:01;;;;;;;19.70;11.90;;;;;;;;;;4934457;29;20209;-67
2021/07/16 02:07:47;;;;;;;20.50;12.40;;;;;;;;;;4932495;29;20418;-67
2021/07/16 02:10:32;;;;;;;21.30;12.10;;;;;;;;;;4933306;29;20604;-68
2021/07/16 02:13:19;;;;;;;20.70;12.60;;;;;;;;;;4932972;29;20328;-67
2021/07/16 02:16:05;;;;;;;15.63;11.40;;;;;;;;;;4932330;29;20767;-66
2021/07/16 02:18:50;;;;;;;16.87;12.17;;;;;;;;;;4934996;28;20299;-67
2021/07/16 02:21:35;;;;;;;18.73;11.30;;;;;;;;;;4932934;29;20213;-67
2021/07/16 02:24:20;;;;;;;19.53;11.93;;;;;;;;;;4978619;23;20251;-69
2021/07/16 02:27:06;;;;;;;20.37;11.97;;;;;;;;;;4974391;28;20207;-69
2021/07/16 02:29:53;;;;;;;21.05;13.27;;;;;;;;;;4973593;28;20434;-71
2021/07/16 02:32:37;;;;;;;19.57;10.87;;;;;;;;;;4974841;28;20219;-71
2021/07/16 02:35:22;;;;;;;17.10;11.73;;;;;;;;;;4989043;28;20211;-71
2021/07/16 02:38:08;;;;;;;17.30;10.70;;;;;;;;;;4992904;28;20206;-70
2021/07/16 02:40:53;;;;;;;17.83;11.67;;;;;;;;;;4994354;28;20701;-70
2021/07/16 02:43:39;;;;;;;21.63;12.03;;;;;;;;;;4993305;28;20238;-70
2021/07/16 02:46:25;;;;;;;17.17;10.57;;;;;;;;;;4993650;28;20214;-70
2021/07/16 02:49:11;;;;;;;17.43;11.40;;;;;;;;;;4989640;28;20218;-70
2021/07/16 02:51:56;;;;;;;19.37;11.20;;;;;;;;;;4986775;28;20210;-70
2021/07/16 02:54:41;;;;;;;17.67;11.17;;;;;;;;;;4974691;28;20666;-70
2021/07/16 02:57:26;;;;;;;16.93;10.90;;;;;;;;;;4974080;28;20897;-70
2021/07/16 03:00:12;;;;;;;18.67;11.10;;;;;;;;;;4957899;28;20217;-71
2021/07/16 03:02:59;;;;;;;18.53;11.47;;;;;;;;;;4991189;28;20363;-70
2021/07/16 03:05:44;;;;;;;17.43;11.50;;;;;;;;;;4993606;28;20210;-70
2021/07/16 03:08:29;;;;;;;19.33;10.50;;;;;;;;;;4985883;28;20214;-70
2021/07/16 03:11:14;;;;;;;24.77;10.70;;;;;;;;;;4974385;28;20703;-70
2021/07/16 03:13:59;;;;;;;15.63;10.60;;;;;;;;;;4969172;28;20342;-70
2021/07/16 03:16:43;;;;;;;20.97;10.80;;;;;;;;;;4973410;28;20575;-70
2021/07/16 03:19:30;;;;;;;20.20;10.67;;;;;;;;;;4974486;28;20278;-70
2021/07/16 03:22:15;;;;;;;22.90;11.03;;;;;;;;;;4977496;28;20209;-70
2021/07/16 03:25:00;;;;;;;21.37;10.53;;;;;;;;;;4977132;28;20234;-70
2021/07/16 03:27:45;;;;;;;25.40;12.80;;;;;;;;;;4972322;28;20549;-70
2021/07/16 03:30:31;;;;;;;19.83;11.13;;;;;;;;;;4973963;28;20203;-71
2021/07/16 03:33:16;;;;;;;17.53;10.03;;;;;;;;;;4973122;28;20230;-71
2021/07/16 03:36:02;;;;;;;22.90;10.57;;;;;;;;;;4972169;28;20215;-70
2021/07/16 03:38:48;;;;;;;20.60;10.60;;;;;;;;;;4973338;28;20286;-70
2021/07/16 03:41:33;;;;;;;19.20;10.40;;;;;;;;;;4973391;28;20249;-70
2021/07/16 03:44:18;;;;;;;22.20;10.10;;;;;;;;;;4973717;28;20359;-70
2021/07/16 03:47:02;;;;;;;18.77;10.50;;;;;;;;;;4973070;28;20211;-71
2021/07/16 03:49:47;;;;;;;19.80;10.20;;;;;;;;;;4973784;28;20215;-71
2021/07/16 03:52:34;;;;;;;21.63;9.80;;;;;;;;;;4973740;28;20211;-72
2021/07/16 03:55:19;;;;;;;20.73;10.67;;;;;;;;;;4973431;28;20207;-71
2021/07/16 03:58:05;;;;;;;21.03;11.20;;;;;;;;;;4973041;28;20211;-70
2021/07/16 04:00:50;;;;;;;19.50;9.93;;;;;;;;;;4973411;28;20210;-71
2021/07/16 04:03:35;;;;;;;23.57;10.63;;;;;;;;;;4973263;28;20358;-71
2021/07/16 04:06:20;;;;;;;20.67;10.50;;;;;;;;;;4972517;28;20215;-71
2021/07/16 04:09:26;;;;;;;19.03;10.30;;;;;;;;;;4973403;28;20233;-71
2021/07/16 04:12:11;;;;;;;17.73;10.27;;;;;;;;;;4972987;28;20355;-70
2021/07/16 04:14:57;;;;;;;21.17;10.17;;;;;;;;;;4973090;28;20353;-71
2021/07/16 04:17:42;;;;;;;23.07;9.77;;;;;;;;;;4971952;28;20215;-68
2021/07/16 04:20:27;;;;;;;22.83;10.17;;;;;;;;;;4964100;28;20995;-71
2021/07/16 04:23:12;;;;;;;19.47;9.67;;;;;;;;;;4971953;28;20281;-71
2021/07/16 04:25:58;;;;;;;23.20;10.75;;;;;;;;;;4971073;28;20481;-71
2021/07/16 04:28:44;;;;;;;19.23;9.23;;;;;;;;;;4971590;28;20353;-70
2021/07/16 04:31:29;;;;;;;17.67;8.90;;;;;;;;;;4971702;28;20208;-70
2021/07/16 04:34:14;;;;;;;21.17;8.23;;;;;;;;;;4952824;29;20227;-70
2021/07/16 04:36:59;;;;;;;20.13;9.07;;;;;;;;;;4971634;28;20203;-70
2021/07/16 04:39:44;;;;;;;18.97;8.77;;;;;;;;;;4971757;28;20299;-70
2021/07/16 04:42:30;;;;;;;18.23;8.47;;;;;;;;;;4972700;28;20327;-70
2021/07/16 04:45:15;;;;;;;18.77;8.83;;;;;;;;;;4971525;28;20230;-71
2021/07/16 04:48:00;;;;;;;18.63;8.50;;;;;;;;;;4971150;28;20222;-70
2021/07/16 04:50:46;;;;;;;16.43;7.93;;;;;;;;;;4972112;28;20590;-71
2021/07/16 04:53:31;;;;;;;20.13;8.30;;;;;;;;;;4972576;28;20608;-70
2021/07/16 04:56:16;;;;;;;19.73;8.87;;;;;;;;;;4971895;28;20206;-71
2021/07/16 04:59:02;;;;;;;16.97;8.13;;;;;;;;;;4972427;28;20223;-70
2021/07/16 05:01:48;;;;;;;21.47;8.53;;;;;;;;;;4972232;28;20223;-71
2021/07/16 05:04:34;;;;;;;19.02;8.95;;;;;;;;;;4973696;28;20510;-68
2021/07/16 05:07:19;;;;;;;20.83;8.90;;;;;;;;;;4970846;28;20267;-71
2021/07/16 05:10:05;;;;;;;19.20;8.17;;;;;;;;;;4972093;28;20208;-71
2021/07/16 05:12:50;;;;;;;19.50;7.97;;;;;;;;;;4971904;28;20339;-70
2021/07/16 05:15:37;;;;;;;15.07;7.43;;;;;;;;;;4972296;28;20211;-70
2021/07/16 05:18:22;;;;;;;22.23;8.33;;;;;;;;;;4972254;28;20720;-70
2021/07/16 05:21:08;;;;;;;17.93;9.10;;;;;;;;;;4971810;28;20313;-70
2021/07/16 05:23:54;;;;;;;18.13;8.00;;;;;;;;;;4971587;28;20760;-72
2021/07/16 05:26:39;;;;;;;18.87;8.47;;;;;;;;;;4971351;28;20320;-70
2021/07/16 05:29:24;;;;;;;17.30;8.63;;;;;;;;;;4972110;28;20204;-70
2021/07/16 05:32:10;;;;;;;19.80;8.80;;;;;;;;;;4972010;28;20692;-71
2021/07/16 05:34:55;;;;;;;18.33;9.03;;;;;;;;;;4971720;28;20646;-71
2021/07/16 05:37:40;;;;;;;21.83;8.80;;;;;;;;;;4971303;28;20231;-71
2021/07/16 05:40:26;;;;;;;17.97;8.57;;;;;;;;;;4952626;29;20696;-70
2021/07/16 05:43:11;;;;;;;19.90;8.17;;;;;;;;;;4970773;28;20240;-70
2021/07/16 05:45:56;;;;;;;19.90;8.43;;;;;;;;;;4970492;28;20293;-70
2021/07/16 05:48:46;;;;;;;17.57;8.20;;;;;;;;;;4971477;28;20209;-70
2021/07/16 05:51:31;;;;;;;17.67;8.87;;;;;;;;;;4971670;28;20328;-70
2021/07/16 05:54:16;;;;;;;18.67;7.73;;;;;;;;;;4971588;28;20227;-71
2021/07/16 05:57:01;;;;;;;19.20;7.97;;;;;;;;;;4970888;28;20760;-70
2021/07/16 05:59:46;;;;;;;21.90;8.60;;;;;;;;;;4973480;28;20211;-70
2021/07/16 06:02:31;;;;;;;22.57;8.87;;;;;;;;;;4975667;28;20258;-70
2021/07/16 06:05:17;;;;;;;21.10;9.23;;;;;;;;;;4973888;28;21052;-70
2021/07/16 06:08:02;;;;;;;20.47;8.40;;;;;;;;;;4974645;28;20207;-70
2021/07/16 06:10:47;;;;;;;18.33;7.80;;;;;;;;;;4975067;28;20601;-70
2021/07/16 06:13:32;;;;;;;18.93;8.13;;;;;;;;;;4960276;28;20310;-71
2021/07/16 06:16:17;;;;;;;17.47;7.43;;;;;;;;;;4969621;28;20215;-70
2021/07/16 06:19:02;;;;;;;19.60;7.80;;;;;;;;;;4956124;29;20344;-71
2021/07/16 06:21:49;;;;;;;17.30;7.93;;;;;;;;;;4966758;28;20216;-71
2021/07/16 06:24:34;;;;;;;18.90;8.20;;;;;;;;;;4973939;28;20419;-71
2021/07/16 06:27:19;;;;;;;21.77;6.77;;;;;;;;;;4974555;28;20207;-71
2021/07/16 06:30:05;;;;;;;20.70;6.87;;;;;;;;;;4975232;28;20207;-68
2021/07/16 06:32:50;;;;;;;15.50;6.67;;;;;;;;;;4975100;28;20231;-70
2021/07/16 06:35:35;;;;;;;23.00;8.00;;;;;;;;;;4975087;28;20276;-71
2021/07/16 06:38:21;;;;;;;17.70;6.93;;;;;;;;;;4974710;28;20208;-70
2021/07/16 06:41:06;;;;;;;16.30;6.20;;;;;;;;;;4955331;28;20348;-69
2021/07/16 06:43:51;;;;;;;18.87;6.67;;;;;;;;;;4969293;28;20318;-69
2021/07/16 06:46:35;;;;;;;16.73;6.53;;;;;;;;;;4971950;28;20333;-70
2021/07/16 06:49:26;;;;;;;15.77;6.07;;;;;;;;;;4963715;28;20689;-69
2021/07/16 06:52:11;;;;;;;17.93;6.30;;;;;;;;;;4955280;29;20352;-69
2021/07/16 06:54:57;;;;;;;18.47;6.43;;;;;;;;;;4969758;28;20599;-69
2021/07/16 06:57:42;;;;;;;18.13;6.67;;;;;;;;;;4973558;28;20271;-69
2021/07/16 07:00:27;;;;;;;16.30;6.50;;;;;;;;;;4974028;28;20215;-69
2021/07/16 07:03:12;;;;;;;18.80;6.53;;;;;;;;;;4955469;29;20251;-69
2021/07/16 07:05:57;;;;;;;16.80;5.80;;;;;;;;;;4971293;28;20220;-70
2021/07/16 07:08:42;;;;;;;19.23;6.30;;;;;;;;;;4973965;28;20238;-69
2021/07/16 07:11:28;;;;;;;19.07;6.23;;;;;;;;;;4974288;28;20211;-70
2021/07/16 07:14:13;;;;;;;22.33;6.80;;;;;;;;;;4973315;28;20228;-69
2021/07/16 07:16:58;;;;;;;18.93;6.40;;;;;;;;;;4958267;28;20220;-69
2021/07/16 07:19:43;;;;;;;19.67;6.43;;;;;;;;;;4972761;28;20279;-70
2021/07/16 07:22:28;;;;;;;18.83;6.72;;;;;;;;;;4973367;28;20476;-69
2021/07/16 07:25:13;;;;;;;18.13;6.20;;;;;;;;;;4962041;28;20751;-69
2021/07/16 07:28:00;;;;;;;20.70;6.50;;;;;;;;;;4972448;28;20210;-69
2021/07/16 07:30:45;;;;;;;18.90;6.47;;;;;;;;;;4973495;28;20263;-69
2021/07/16 07:33:29;;;;;;;21.23;6.50;;;;;;;;;;4973693;28;20227;-69
2021/07/16 07:36:14;;;;;;;17.37;6.40;;;;;;;;;;4972366;28;20208;-69
2021/07/16 07:38:59;;;;;;;19.13;6.50;;;;;;;;;;4968342;28;20348;-69
2021/07/16 07:41:48;;;;;;;18.17;6.63;;;;;;;;;;4970643;28;20287;-69
2021/07/16 07:44:34;;;;;;;19.03;6.03;;;;;;;;;;4972233;28;20235;-69
2021/07/16 07:47:19;;;;;;;21.43;6.23;;;;;;;;;;4972888;28;20303;-70
2021/07/16 07:50:06;;;;;;;21.03;6.53;;;;;;;;;;4967448;28;20313;-69
2021/07/16 07:52:52;;;;;;;18.20;6.23;;;;;;;;;;4959058;28;20232;-69
2021/07/16 07:55:37;;;;;;;17.87;6.50;;;;;;;;;;4971206;28;20568;-70
2021/07/16 07:58:23;;;;;;;19.53;6.37;;;;;;;;;;4972738;28;20674;-71
2021/07/16 08:01:09;;;;;;;19.30;6.50;;;;;;;;;;4972392;28;20502;-70
2021/07/16 08:03:54;;;;;;;21.23;6.57;;;;;;;;;;4973125;28;20231;-71
2021/07/16 08:06:39;;;;;;;22.23;5.97;;;;;;;;;;4972666;28;20688;-70
2021/07/16 08:09:24;;;;;;;16.37;5.57;;;;;;;;;;4973274;28;20266;-70
2021/07/16 08:12:09;;;;;;;17.30;6.07;;;;;;;;;;4972861;28;20225;-71
2021/07/16 08:14:54;;;;;;;17.33;6.23;;;;;;;;;;4973266;28;20232;-70
2021/07/16 08:17:40;;;;;;;15.07;5.60;;;;;;;;;;4972666;28;20707;-71
2021/07/16 08:20:25;;;;;;;20.43;6.23;;;;;;;;;;4972947;28;20220;-71
2021/07/16 08:23:10;;;;;;;19.20;6.57;;;;;;;;;;4971341;28;20748;-70
2021/07/16 08:25:55;;;;;;;17.57;6.57;;;;;;;;;;4990718;23;20239;-68
2021/07/16 08:28:41;;;;;;;18.87;6.17;;;;;;;;;;4972687;28;20335;-69
2021/07/16 08:31:26;;;;;;;18.67;6.43;;;;;;;;;;4972577;28;20207;-68
2021/07/16 08:34:14;;;;;;;19.37;6.70;;;;;;;;;;4972975;28;20698;-68
2021/07/16 08:36:59;;;;;;;18.43;6.70;;;;;;;;;;4965069;28;20223;-68
2021/07/16 08:39:44;;;;;;;17.20;6.80;;;;;;;;;;4959249;28;20288;-68
2021/07/16 08:42:29;;;;;;;18.70;7.03;;;;;;;;;;4953229;29;20204;-68
2021/07/16 08:45:15;;;;;;;17.23;6.07;;;;;;;;;;4953443;28;20615;-68
2021/07/16 08:48:00;;;;;;;18.33;6.40;;;;;;;;;;4952769;29;20244;-68
2021/07/16 08:50:47;;;;;;;18.03;6.90;;;;;;;;;;4941041;28;20424;-69
2021/07/16 08:53:33;;;;;;;20.67;7.33;;;;;;;;;;4934342;29;20827;-68
2021/07/16 08:56:18;;;;;;;20.27;7.37;;;;;;;;;;4945138;28;20200;-69
2021/07/16 08:59:05;;;;;;;21.83;6.53;;;;;;;;;;4953158;29;20228;-69
2021/07/16 09:01:50;;;;;;;20.13;6.27;;;;;;;;;;4953171;29;20213;-67
2021/07/16 09:04:37;;;;;;;20.27;7.30;;;;;;;;;;4952573;28;20721;-68
2021/07/16 09:07:23;;;;;;;16.80;7.10;;;;;;;;;;4963110;28;20219;-69
2021/07/16 09:10:08;;;;;;;23.03;6.77;;;;;;;;;;4963784;28;20697;-68
2021/07/16 09:12:57;;;;;;;16.73;6.77;;;;;;;;;;4952821;29;20212;-66
2021/07/16 09:15:47;;;;;;;16.73;6.67;;;;;;;;;;4933583;29;20588;-68
2021/07/16 09:18:33;;;;;;;18.67;7.43;;;;;;;;;;4933483;29;20588;-68
2021/07/16 09:21:18;;;;;;;19.45;7.50;;;;;;;;;;4939128;28;20511;-68
2021/07/16 09:24:05;;;;;;;19.37;7.10;;;;;;;;;;4971896;28;20343;-69
2021/07/16 09:26:51;;;;;;;20.77;7.03;;;;;;;;;;4970943;28;20673;-68
2021/07/16 09:29:35;;;;;;;22.23;7.10;;;;;;;;;;4971858;28;20211;-68
2021/07/16 09:32:20;;;;;;;23.33;7.07;;;;;;;;;;4954155;28;20704;-67
2021/07/16 09:35:06;;;;;;;23.10;8.00;;;;;;;;;;4952581;28;20317;-67
2021/07/16 09:37:52;;;;;;;21.90;7.60;;;;;;;;;;4967803;28;20204;-68
2021/07/16 09:40:40;;;;;;;20.40;7.43;;;;;;;;;;4957936;28;20695;-68
2021/07/16 09:43:26;;;;;;;20.63;7.67;;;;;;;;;;4952529;29;20216;-68
2021/07/16 09:46:10;;;;;;;18.90;8.00;;;;;;;;;;4961824;28;20231;-68
2021/07/16 09:49:10;;;;;;;23.70;8.30;;;;;;;;;;4955862;28;20221;-68
2021/07/16 09:52:06;;;;;;;21.27;7.60;;;;;;;;;;4951482;28;20208;-66
2021/07/16 09:55:07;;;;;;;25.33;8.70;;;;;;;;;;4966668;28;20228;-66
2021/07/16 09:57:55;;;;;;;20.17;7.47;;;;;;;;;;4953605;28;20208;-67
2021/07/16 10:00:40;;;;;;;20.90;7.47;;;;;;;;;;4951973;29;20276;-65
2021/07/16 10:03:24;;;;;;;20.23;7.53;;;;;;;;;;4952432;29;20400;-66
2021/07/16 10:06:12;;;;;;;23.00;7.97;;;;;;;;;;4969523;28;20238;-66
2021/07/16 10:08:59;;;;;;;21.33;7.77;;;;;;;;;;4961309;28;20220;-67
2021/07/16 10:11:46;;;;;;;25.40;8.70;;;;;;;;;;4952032;29;20216;-67
2021/07/16 10:14:33;;;;;;;22.23;7.80;;;;;;;;;;4932947;29;20374;-67
2021/07/16 10:17:18;;;;;;;23.87;8.20;;;;;;;;;;4932468;29;20668;-66
2021/07/16 10:20:04;;;;;;;21.30;8.43;;;;;;;;;;4933097;29;20914;-66
2021/07/16 10:22:51;;;;;;;21.20;8.63;;;;;;;;;;4939864;28;20426;-65
2021/07/16 10:25:36;;;;;;;21.97;8.10;;;;;;;;;;4951789;29;20740;-66
2021/07/16 10:28:45;;;;;;;22.43;8.73;;;;;;;;;;4952005;29;20217;-66
2021/07/16 10:31:39;;;;;;;21.27;8.03;;;;;;;;;;4944884;28;20585;-67
2021/07/16 10:34:31;;;;;;;20.97;7.70;;;;;;;;;;4946016;28;20287;-66
2021/07/16 10:37:16;;;;;;;17.50;7.70;;;;;;;;;;4959954;28;20208;-66
2021/07/16 10:40:01;;;;;;;23.30;7.60;;;;;;;;;;4952042;29;20321;-66
2021/07/16 10:42:47;;;;;;;23.07;7.93;;;;;;;;;;4953518;28;20970;-66
2021/07/16 10:45:34;;;;;;;22.53;7.57;;;;;;;;;;4951756;28;20789;-64
2021/07/16 10:48:21;;;;;;;21.10;7.73;;;;;;;;;;4955877;28;20290;-66
2021/07/16 10:51:07;;;;;;;26.83;7.87;;;;;;;;;;4940445;29;20714;-66
2021/07/16 10:53:52;;;;;;;19.77;7.10;;;;;;;;;;4936165;29;20733;-66
2021/07/16 10:56:38;;;;;;;25.77;7.97;;;;;;;;;;4942452;28;20200;-66
2021/07/16 10:59:42;;;;;;;18.70;7.13;;;;;;;;;;4956292;28;20693;-66
2021/07/16 11:02:44;;;;;;;21.57;8.07;;;;;;;;;;4969989;28;20212;-66
2021/07/16 11:05:48;;;;;;;23.27;7.63;;;;;;;;;;4972118;28;20220;-66
2021/07/16 11:08:51;;;;;;;20.53;7.33;;;;;;;;;;4957795;28;20675;-66
2021/07/16 11:11:39;;;;;;;16.87;6.53;;;;;;;;;;4954850;29;20805;-66
2021/07/16 11:14:24;;;;;;;22.73;7.17;;;;;;;;;;4954850;29;20985;-66
2021/07/16 11:17:10;;;;;;;20.37;7.50;;;;;;;;;;4954290;29;20290;-66
2021/07/16 11:20:09;;;;;;;23.35;8.15;;;;;;;;;;4954429;29;20394;-66
2021/07/16 11:22:55;;;;;;;21.77;7.20;;;;;;;;;;4954764;29;20216;-66
2021/07/16 11:25:43;;;;;;;24.20;7.33;;;;;;;;;;4954418;29;20257;-66
2021/07/16 11:28:29;;;;;;;21.67;7.87;;;;;;;;;;4958983;28;20217;-66
2021/07/16 11:31:18;;;;;;;19.33;7.03;;;;;;;;;;4935470;29;20309;-67
2021/07/16 11:34:05;;;;;;;18.90;6.83;;;;;;;;;;4935495;29;20225;-68
2021/07/16 11:36:50;;;;;;;19.27;6.37;;;;;;;;;;4934693;29;20209;-67
2021/07/16 11:39:36;;;;;;;17.87;6.60;;;;;;;;;;4945657;28;20764;-66
2021/07/16 11:42:21;;;;;;;18.13;6.40;;;;;;;;;;4966058;28;20212;-68
2021/07/16 11:45:10;;;;;;;19.50;6.87;;;;;;;;;;4963529;28;20295;-67
2021/07/16 11:47:55;;;;;;;17.50;7.00;;;;;;;;;;4970303;28;20216;-66
2021/07/16 11:50:40;;;;;;;19.40;7.03;;;;;;;;;;4960991;28;20211;-67
2021/07/16 11:53:28;;;;;;;22.37;7.20;;;;;;;;;;4954407;29;20212;-66
2021/07/16 11:56:13;;;;;;;18.60;6.67;;;;;;;;;;4953206;28;20241;-66
2021/07/16 11:58:59;;;;;;;17.67;6.80;;;;;;;;;;4953600;29;20265;-66
2021/07/16 12:02:03;;;;;;;20.43;7.07;;;;;;;;;;4955097;28;20304;-66
2021/07/16 12:04:49;;;;;;;19.93;7.27;;;;;;;;;;4953662;29;20236;-66
2021/07/16 12:07:38;;;;;;;20.00;6.73;;;;;;;;;;4953235;29;20220;-66
2021/07/16 12:10:23;;;;;;;21.27;6.93;;;;;;;;;;4954040;29;20239;-66
2021/07/16 12:13:08;;;;;;;19.33;6.03;;;;;;;;;;4953959;29;20216;-66
2021/07/16 12:16:00;;;;;;;18.77;6.83;;;;;;;;;;4947909;29;20232;-66
2021/07/16 12:18:48;;;;;;;18.27;6.60;;;;;;;;;;4952878;29;20436;-67
2021/07/16 12:21:35;;;;;;;17.57;6.67;;;;;;;;;;4953798;29;20212;-66
2021/07/16 12:24:19;;;;;;;19.77;6.67;;;;;;;;;;4946867;29;20608;-66
2021/07/16 12:27:07;;;;;;;17.43;7.17;;;;;;;;;;4944616;29;20232;-66
2021/07/16 12:29:56;;;;;;;17.80;7.37;;;;;;;;;;4934245;29;20213;-66
2021/07/16 12:32:42;;;;;;;21.50;7.57;;;;;;;;;;4934721;28;20213;-65
2021/07/16 12:35:28;;;;;;;15.17;7.10;;;;;;;;;;4934232;29;20729;-64
2021/07/16 12:38:14;;;;;;;19.00;7.30;;;;;;;;;;4934317;29;20209;-65
2021/07/16 12:41:06;;;;;;;18.33;7.03;;;;;;;;;;4934335;29;20277;-65
2021/07/16 12:43:51;;;;;;;19.63;7.40;;;;;;;;;;4940418;28;20205;-65
2021/07/16 12:46:36;;;;;;;18.90;7.03;;;;;;;;;;4959184;28;20923;-67
2021/07/16 12:49:25;;;;;;;19.77;7.07;;;;;;;;;;4952810;28;20283;-67
2021/07/16 12:52:13;;;;;;;16.77;6.80;;;;;;;;;;4949765;29;20826;-66
2021/07/16 12:55:10;;;;;;;16.97;6.77;;;;;;;;;;4953006;29;20284;-66
2021/07/16 12:58:00;;;;;;;16.10;6.87;;;;;;;;;;4952527;29;20264;-67
2021/07/16 13:00:46;;;;;;;18.93;6.57;;;;;;;;;;4953107;29;20204;-66
2021/07/16 13:03:37;;;;;;;18.17;7.37;;;;;;;;;;4952929;29;20564;-67
2021/07/16 13:06:28;;;;;;;14.47;6.57;;;;;;;;;;4952269;29;20224;-67
2021/07/16 13:09:17;;;;;;;15.73;6.37;;;;;;;;;;4952577;28;20216;-67
2021/07/16 13:12:03;;;;;;;15.57;6.43;;;;;;;;;;4952859;29;20213;-67
2021/07/16 13:14:53;;;;;;;18.03;6.80;;;;;;;;;;4952819;29;20256;-67
2021/07/16 13:17:38;;;;;;;13.53;6.57;;;;;;;;;;4952459;29;20208;-68
2021/07/16 13:20:22;;;;;;;17.03;6.83;;;;;;;;;;4952672;29;20208;-66
2021/07/16 13:23:07;;;;;;;15.20;6.50;;;;;;;;;;4936786;29;20217;-66
2021/07/16 13:25:56;;;;;;;17.33;6.43;;;;;;;;;;4947698;29;20277;-67
2021/07/16 13:28:41;;;;;;;19.33;7.33;;;;;;;;;;4949800;28;20207;-66
2021/07/16 13:31:26;;;;;;;19.77;7.00;;;;;;;;;;4941885;28;20341;-66
2021/07/16 13:34:11;;;;;;;18.63;7.57;;;;;;;;;;4945585;29;20725;-66
2021/07/16 13:36:56;;;;;;;22.27;7.47;;;;;;;;;;4947448;29;20287;-66
2021/07/16 13:39:41;;;;;;;15.23;6.30;;;;;;;;;;4947133;29;20216;-67
2021/07/16 13:42:27;;;;;;;17.70;7.43;;;;;;;;;;4947426;29;20535;-66
2021/07/16 13:45:12;;;;;;;20.63;6.97;;;;;;;;;;4948262;29;20224;-66
2021/07/16 13:47:57;;;;;;;16.60;7.00;;;;;;;;;;4948164;29;20741;-65
2021/07/16 13:50:42;;;;;;;20.30;7.23;;;;;;;;;;4948233;29;20632;-65
2021/07/16 13:53:27;;;;;;;21.73;7.20;;;;;;;;;;4947313;28;20209;-65
2021/07/16 13:56:12;;;;;;;16.80;7.13;;;;;;;;;;4945463;29;20428;-66
2021/07/16 13:58:59;;;;;;;18.63;7.80;;;;;;;;;;4950312;29;20290;-66
2021/07/16 14:01:44;;;;;;;15.00;6.80;;;;;;;;;;4948279;28;20222;-65
2021/07/16 14:04:29;;;;;;;15.60;6.60;;;;;;;;;;4949623;29;20249;-66
2021/07/16 14:07:14;;;;;;;19.50;6.73;;;;;;;;;;4949569;28;20228;-66
2021/07/16 14:09:59;;;;;;;17.93;7.10;;;;;;;;;;4948071;29;20212;-65
2021/07/16 14:12:44;;;;;;;14.80;6.97;;;;;;;;;;4950062;29;20213;-66
2021/07/16 14:15:31;;;;;;;17.43;6.70;;;;;;;;;;4949483;29;20244;-66
2021/07/16 14:18:16;;;;;;;16.87;7.70;;;;;;;;;;4943618;28;20436;-66
2021/07/16 14:21:00;;;;;;;18.00;6.90;;;;;;;;;;4951031;28;20276;-67
2021/07/16 14:23:45;;;;;;;23.90;8.00;;;;;;;;;;4954064;29;20206;-66
2021/07/16 14:26:31;;;;;;;22.20;7.37;;;;;;;;;;4954397;28;20223;-65
2021/07/16 14:29:16;;;;;;;16.20;7.63;;;;;;;;;;4955449;28;20346;-65
2021/07/16 14:32:02;;;;;;;22.27;8.23;;;;;;;;;;4953334;29;20215;-65
2021/07/16 14:34:47;;;;;;;18.77;7.43;;;;;;;;;;4954083;28;20717;-65
2021/07/16 14:37:32;;;;;;;15.27;7.20;;;;;;;;;;4952101;29;20573;-66
2021/07/16 14:40:19;;;;;;;20.20;7.93;;;;;;;;;;4954090;28;20213;-65
2021/07/16 14:43:05;;;;;;;18.40;6.70;;;;;;;;;;4954570;28;20674;-65
2021/07/16 14:45:50;;;;;;;21.00;7.33;;;;;;;;;;4955333;28;20650;-65
2021/07/16 14:48:36;;;;;;;21.23;7.63;;;;;;;;;;4953349;28;20204;-65
2021/07/16 14:51:21;;;;;;;15.47;7.53;;;;;;;;;;4953149;29;20216;-66
2021/07/16 14:54:07;;;;;;;17.37;7.23;;;;;;;;;;4952376;28;20348;-65
2021/07/16 14:56:52;;;;;;;18.40;8.23;;;;;;;;;;4952710;28;20354;-64
2021/07/16 14:59:37;;;;;;;20.70;7.77;;;;;;;;;;4953696;28;20213;-65
2021/07/16 15:02:22;;;;;;;20.33;7.73;;;;;;;;;;4955626;28;20215;-65
2021/07/16 15:05:09;;;;;;;17.63;7.63;;;;;;;;;;4952795;29;20764;-66
2021/07/16 15:07:54;;;;;;;19.80;7.67;;;;;;;;;;4949764;28;20224;-65
2021/07/16 15:10:39;;;;;;;19.10;7.40;;;;;;;;;;4954284;28;20300;-65
2021/07/16 15:13:24;;;;;;;16.17;6.87;;;;;;;;;;4952515;29;20212;-65
2021/07/16 15:16:09;;;;;;;19.80;8.68;;;;;;;;;;4951761;28;20424;-66
2021/07/16 15:18:54;;;;;;;19.53;7.63;;;;;;;;;;4954964;28;20704;-65
2021/07/16 15:21:41;;;;;;;19.37;7.47;;;;;;;;;;4952527;29;20216;-65
2021/07/16 15:24:26;;;;;;;19.47;7.97;;;;;;;;;;4952489;29;20250;-63
2021/07/16 15:27:11;;;;;;;18.47;7.47;;;;;;;;;;4951786;29;20308;-65
2021/07/16 15:29:55;;;;;;;20.77;8.23;;;;;;;;;;4955176;28;20233;-65
2021/07/16 15:32:40;;;;;;;18.77;7.67;;;;;;;;;;4952369;28;20213;-64
2021/07/16 15:35:25;;;;;;;22.77;8.03;;;;;;;;;;4952388;28;20405;-65
2021/07/16 15:38:12;;;;;;;19.27;7.50;;;;;;;;;;4950661;28;20260;-65
2021/07/16 15:40:56;;;;;;;19.23;7.63;;;;;;;;;;4954446;28;20228;-65
2021/07/16 15:43:44;;;;;;;23.90;8.07;;;;;;;;;;4952543;29;20623;-65
2021/07/16 15:46:29;;;;;;;19.50;8.67;;;;;;;;;;4951737;28;20300;-65
2021/07/16 15:49:15;;;;;;;18.47;8.37;;;;;;;;;;4953104;28;20570;-65
2021/07/16 15:52:01;;;;;;;20.97;7.63;;;;;;;;;;4952555;28;20285;-65
2021/07/16 15:54:47;;;;;;;22.08;8.75;;;;;;;;;;4950613;29;20428;-65
2021/07/16 15:57:31;;;;;;;16.10;6.83;;;;;;;;;;4951318;29;20336;-66
2021/07/16 16:00:17;;;;;;;17.50;7.70;;;;;;;;;;4951994;28;20209;-66
2021/07/16 16:03:02;;;;;;;17.67;7.87;;;;;;;;;;4951483;29;20252;-65
2021/07/16 16:05:47;;;;;;;17.23;8.00;;;;;;;;;;4951305;28;20232;-66
2021/07/16 16:08:31;;;;;;;19.67;8.23;;;;;;;;;;4952649;28;20235;-66
2021/07/16 16:11:18;;;;;;;20.60;7.83;;;;;;;;;;4952253;29;20212;-66
2021/07/16 16:14:03;;;;;;;21.20;8.45;;;;;;;;;;4948670;29;20424;-65
2021/07/16 16:16:48;;;;;;;18.90;8.27;;;;;;;;;;4951039;29;20600;-66